Time;durP1;ratioP1;P1;durP2;ratioP2;P2;SDS_P1;SDS_P2;PMS_P1;PMS_P2;Temp;Humidity;BMP_temperature;BMP_pressure;BME280_temperature;BME280_humidity;BME280_pressure;Samples;Min_cycle;Max_cycle;Signal;HPM_P1;HPM_P2
2023/08/18 00:01:30;;;;;;;1.80;1.70;;;17.60;99.90;;;;;;5134281;27;20410;-72
2023/08/18 00:03:58;;;;;;;2.80;1.95;;;17.60;99.90;;;;;;5134498;27;20039;-72
2023/08/18 00:06:24;;;;;;;4.00;1.80;;;17.60;99.90;;;;;;5134389;27;20043;-71
2023/08/18 00:08:50;;;;;;;4.32;2.10;;;17.50;99.90;;;;;;5099172;27;20097;-72
2023/08/18 00:11:16;;;;;;;3.17;2.10;;;17.50;99.90;;;;;;5134532;27;20047;-72
2023/08/18 00:13:42;;;;;;;4.03;1.92;;;17.50;99.90;;;;;;5116308;27;20494;-72
2023/08/18 00:16:07;;;;;;;3.70;2.03;;;17.50;99.90;;;;;;5134555;27;20051;-72
2023/08/18 00:18:33;;;;;;;3.10;2.00;;;17.50;99.90;;;;;;5134236;27;20043;-72
2023/08/18 00:20:59;;;;;;;3.97;2.30;;;17.50;99.90;;;;;;5133826;27;20126;-72
2023/08/18 00:23:24;;;;;;;2.65;2.08;;;17.50;99.90;;;;;;5134204;27;20055;-72
2023/08/18 00:25:50;;;;;;;2.08;1.90;;;17.50;99.90;;;;;;5134402;27;20043;-72
2023/08/18 00:28:16;;;;;;;2.38;2.10;;;17.50;99.90;;;;;;5134058;27;20047;-72
2023/08/18 00:30:42;;;;;;;4.68;2.10;;;17.40;99.90;;;;;;5134562;27;20043;-72
2023/08/18 00:33:07;;;;;;;5.65;2.60;;;17.40;99.90;;;;;;5134900;27;20466;-72
2023/08/18 00:35:34;;;;;;;4.32;2.55;;;17.40;99.90;;;;;;5133786;27;20093;-73
2023/08/18 00:37:59;;;;;;;4.32;2.20;;;17.40;99.90;;;;;;5134115;27;20376;-72
2023/08/18 00:40:25;;;;;;;3.58;2.28;;;17.40;99.90;;;;;;5115553;27;20046;-72
2023/08/18 00:42:51;;;;;;;3.58;2.13;;;17.40;99.90;;;;;;5133291;27;20086;-72
2023/08/18 00:45:17;;;;;;;8.95;2.58;;;17.40;99.90;;;;;;5133804;27;20047;-72
2023/08/18 00:47:44;;;;;;;3.50;1.90;;;17.40;99.90;;;;;;5134228;27;20063;-72
2023/08/18 00:50:11;;;;;;;4.32;2.20;;;17.40;99.90;;;;;;5133687;27;20051;-71
2023/08/18 00:52:38;;;;;;;4.28;2.00;;;17.40;99.90;;;;;;5134037;27;20118;-72
2023/08/18 00:55:04;;;;;;;3.75;2.15;;;17.40;99.90;;;;;;5133508;27;20478;-72
2023/08/18 00:57:31;;;;;;;4.35;2.38;;;17.40;99.90;;;;;;5115066;27;20416;-71
2023/08/18 00:59:58;;;;;;;2.25;1.90;;;17.40;99.90;;;;;;5133585;27;20054;-72
2023/08/18 01:02:24;;;;;;;6.85;2.72;;;17.40;99.90;;;;;;5133582;27;20043;-72
2023/08/18 01:04:50;;;;;;;5.32;2.55;;;17.40;99.90;;;;;;5133466;27;20039;-72
2023/08/18 01:07:16;;;;;;;2.85;2.30;;;17.40;99.90;;;;;;5115332;28;20043;-72
2023/08/18 01:09:41;;;;;;;4.20;2.72;;;17.40;99.90;;;;;;5115126;28;20043;-72
2023/08/18 01:12:26;;;;;;;2.85;2.20;;;17.40;99.90;;;;;;5133778;28;20287;-72
2023/08/18 01:15:14;;;;;;;3.03;2.00;;;17.40;99.90;;;;;;5133813;27;20043;-71
2023/08/18 01:17:54;;;;;;;3.75;2.35;;;17.40;99.90;;;;;;5137750;27;20099;-72
2023/08/18 01:20:22;;;;;;;2.72;2.05;;;17.40;99.90;;;;;;5137776;27;20126;-72
2023/08/18 01:23:07;;;;;;;4.97;2.70;;;17.30;99.90;;;;;;5119676;27;20120;-72
2023/08/18 01:25:33;;;;;;;4.57;2.33;;;17.30;99.90;;;;;;5137411;27;20050;-72
2023/08/18 01:28:01;;;;;;;5.03;2.58;;;17.30;99.90;;;;;;5137383;27;20043;-72
2023/08/18 01:30:48;;;;;;;4.25;1.90;;;17.30;99.90;;;;;;5138098;27;20054;-72
2023/08/18 01:33:21;;;;;;;2.80;2.40;;;17.30;99.90;;;;;;5119075;27;20047;-72
2023/08/18 01:35:49;;;;;;;2.75;2.10;;;17.30;99.90;;;;;;5137729;27;20476;-72
2023/08/18 01:38:16;;;;;;;3.03;2.22;;;17.30;99.90;;;;;;5118805;27;20042;-72
2023/08/18 01:40:43;;;;;;;4.18;2.55;;;17.30;99.90;;;;;;5137675;27;20117;-71
2023/08/18 01:43:09;;;;;;;4.32;2.50;;;17.20;99.90;;;;;;5137213;27;20051;-71
2023/08/18 01:45:36;;;;;;;2.67;2.17;;;17.20;99.90;;;;;;5118784;27;20062;-72
2023/08/18 01:48:02;;;;;;;3.33;2.08;;;17.20;99.90;;;;;;5137169;27;20178;-72
2023/08/18 01:50:27;;;;;;;4.25;2.58;;;17.30;99.90;;;;;;5137019;27;20506;-72
2023/08/18 01:52:53;;;;;;;3.15;2.10;;;17.30;99.90;;;;;;5136992;27;20043;-72
2023/08/18 01:55:19;;;;;;;5.55;2.28;;;17.20;99.90;;;;;;5137062;27;20494;-72
2023/08/18 01:57:44;;;;;;;5.35;2.53;;;17.20;99.90;;;;;;5137329;27;20581;-72
2023/08/18 02:00:10;;;;;;;6.63;2.25;;;17.30;99.90;;;;;;5137248;27;20046;-72
2023/08/18 02:02:36;;;;;;;6.28;2.33;;;17.30;99.90;;;;;;5137212;27;20079;-72
2023/08/18 02:05:02;;;;;;;3.38;2.38;;;17.30;99.90;;;;;;5137051;27;20467;-72
2023/08/18 02:07:27;;;;;;;3.53;3.00;;;17.30;99.90;;;;;;5136726;27;20495;-72
2023/08/18 02:09:53;;;;;;;4.25;2.33;;;17.30;99.90;;;;;;5101548;27;20047;-72
2023/08/18 02:12:19;;;;;;;4.70;2.90;;;17.30;99.90;;;;;;5136549;27;20545;-72
2023/08/18 02:14:44;;;;;;;3.55;2.53;;;17.30;99.90;;;;;;5137200;27;20046;-72
2023/08/18 02:17:10;;;;;;;2.83;2.50;;;17.30;99.90;;;;;;5101250;27;20491;-72
2023/08/18 02:19:36;;;;;;;5.25;2.85;;;17.30;99.90;;;;;;5118020;27;20099;-72
2023/08/18 02:22:01;;;;;;;3.05;2.63;;;17.30;99.90;;;;;;5101992;27;20046;-72
2023/08/18 02:24:28;;;;;;;3.13;2.58;;;17.30;99.90;;;;;;5118304;27;20089;-72
2023/08/18 02:26:53;;;;;;;3.33;2.30;;;17.30;99.90;;;;;;5136755;27;20157;-72
2023/08/18 02:29:19;;;;;;;3.67;2.63;;;17.20;99.90;;;;;;5136876;27;20147;-72
2023/08/18 02:31:47;;;;;;;4.40;3.00;;;17.30;99.90;;;;;;5118554;27;20052;-72
2023/08/18 02:34:12;;;;;;;4.78;3.20;;;17.20;99.90;;;;;;5136296;27;20047;-72
2023/08/18 02:36:38;;;;;;;4.15;2.47;;;16.90;99.90;;;;;;5136193;27;20641;-71
2023/08/18 02:39:04;;;;;;;3.17;2.83;;;17.20;99.90;;;;;;5136012;27;20046;-71
2023/08/18 02:41:30;;;;;;;4.85;2.90;;;17.20;99.90;;;;;;5136496;27;20096;-71
2023/08/18 02:43:55;;;;;;;3.63;3.33;;;17.20;99.90;;;;;;5136601;27;20043;-71
2023/08/18 02:46:21;;;;;;;5.18;3.58;;;17.20;99.90;;;;;;5135939;27;20395;-71
2023/08/18 02:48:47;;;;;;;5.60;3.72;;;17.20;99.90;;;;;;5135985;27;20051;-71
2023/08/18 02:51:12;;;;;;;5.53;3.03;;;17.20;99.90;;;;;;5135971;27;20133;-71
2023/08/18 02:53:38;;;;;;;5.10;3.25;;;17.20;99.90;;;;;;5135746;27;20054;-71
2023/08/18 02:56:04;;;;;;;4.78;3.00;;;17.20;99.90;;;;;;5135505;27;20188;-72
2023/08/18 02:58:31;;;;;;;3.50;3.20;;;17.30;99.90;;;;;;5136003;27;20047;-71
2023/08/18 03:01:05;;;;;;;4.28;3.88;;;17.30;99.90;;;;;;5135523;27;20050;-71
2023/08/18 03:03:30;;;;;;;4.90;3.95;;;17.30;99.90;;;;;;5117313;27;20416;-74
2023/08/18 03:06:04;;;;;;;4.07;3.47;;;17.70;99.90;;;;;;5135566;27;20187;-74
2023/08/18 03:08:30;;;;;;;4.03;3.65;;;17.20;99.90;;;;;;5135216;27;20441;-74
2023/08/18 03:11:00;;;;;;;4.40;3.28;;;17.20;99.90;;;;;;5135934;27;20047;-74
2023/08/18 03:13:26;;;;;;;7.82;4.75;;;17.30;99.90;;;;;;5135832;27;20142;-74
2023/08/18 03:15:52;;;;;;;5.20;3.60;;;17.30;99.90;;;;;;5135538;27;20395;-71
2023/08/18 03:18:18;;;;;;;4.75;3.97;;;17.20;99.90;;;;;;5135459;27;20115;-71
2023/08/18 03:20:48;;;;;;;3.97;3.30;;;17.20;99.90;;;;;;5117599;27;20436;-72
2023/08/18 03:23:14;;;;;;;4.43;3.92;;;17.20;99.90;;;;;;5117513;27;20039;-71
2023/08/18 03:25:40;;;;;;;4.03;3.72;;;17.20;99.90;;;;;;5135302;27;20108;-74
2023/08/18 03:28:07;;;;;;;4.65;3.50;;;17.20;99.90;;;;;;5135390;27;20051;-71
2023/08/18 03:30:36;;;;;;;4.43;3.95;;;17.20;99.90;;;;;;5135335;27;20470;-72
2023/08/18 03:33:03;;;;;;;6.78;4.25;;;17.20;99.90;;;;;;5134768;27;20480;-72
2023/08/18 03:35:31;;;;;;;6.97;4.22;;;17.20;99.90;;;;;;5135173;27;20047;-71
2023/08/18 03:37:58;;;;;;;7.40;4.60;;;17.20;99.90;;;;;;5134290;27;20089;-72
2023/08/18 03:40:25;;;;;;;6.85;4.40;;;17.20;99.90;;;;;;5134994;27;20051;-72
2023/08/18 03:42:50;;;;;;;6.05;4.22;;;17.20;99.90;;;;;;5134809;27;20475;-72
2023/08/18 03:45:16;;;;;;;5.53;4.47;;;17.20;99.90;;;;;;5116732;27;20080;-72
2023/08/18 03:47:42;;;;;;;6.13;5.10;;;17.20;99.90;;;;;;5134659;27;20047;-71
2023/08/18 03:50:08;;;;;;;7.15;4.45;;;17.20;99.90;;;;;;5134732;27;20083;-72
2023/08/18 03:52:34;;;;;;;6.00;5.05;;;17.20;99.90;;;;;;5134712;27;20482;-71
2023/08/18 03:55:00;;;;;;;6.55;4.78;;;17.20;99.90;;;;;;5134563;27;20085;-71
2023/08/18 03:57:26;;;;;;;5.57;4.65;;;17.10;99.90;;;;;;5116684;27;20043;-72
2023/08/18 03:59:53;;;;;;;6.22;4.32;;;17.10;99.90;;;;;;5134885;27;20050;-72
2023/08/18 04:02:19;;;;;;;6.72;5.45;;;17.10;99.90;;;;;;5134586;27;20466;-71
2023/08/18 04:04:45;;;;;;;5.65;4.72;;;17.20;99.90;;;;;;5134845;27;20050;-72
2023/08/18 04:07:10;;;;;;;5.43;4.85;;;17.20;99.90;;;;;;5134989;27;20051;-71
2023/08/18 04:09:37;;;;;;;6.68;5.35;;;17.10;99.90;;;;;;5116040;27;20482;-72
2023/08/18 04:12:02;;;;;;;7.53;5.00;;;17.10;99.90;;;;;;5134433;27;20475;-71
2023/08/18 04:14:28;;;;;;;7.70;5.60;;;17.10;99.90;;;;;;5134187;27;20051;-71
2023/08/18 04:16:54;;;;;;;7.75;5.93;;;17.10;99.90;;;;;;5116710;27;20039;-72
2023/08/18 04:19:19;;;;;;;6.75;5.60;;;17.10;99.90;;;;;;5134618;27;20101;-72
2023/08/18 04:21:45;;;;;;;5.85;5.10;;;17.10;99.90;;;;;;5134705;27;20072;-72
2023/08/18 04:24:13;;;;;;;6.18;5.10;;;17.10;99.90;;;;;;5134080;27;20039;-72
2023/08/18 04:26:39;;;;;;;5.57;5.03;;;17.10;99.90;;;;;;5134113;27;20051;-72
2023/08/18 04:29:05;;;;;;;5.60;5.10;;;17.10;99.90;;;;;;5134422;27;20051;-72
2023/08/18 04:31:31;;;;;;;6.80;5.05;;;17.10;99.90;;;;;;5133942;27;20095;-72
2023/08/18 04:33:57;;;;;;;6.47;5.45;;;17.20;99.90;;;;;;5134064;27;20087;-71
2023/08/18 04:36:23;;;;;;;5.90;5.10;;;17.20;99.90;;;;;;5133843;27;20050;-71
2023/08/18 04:38:48;;;;;;;8.18;5.65;;;17.20;99.90;;;;;;5133871;27;20050;-72
2023/08/18 04:41:14;;;;;;;6.72;5.65;;;17.20;99.90;;;;;;5133880;27;20039;-71
2023/08/18 04:43:40;;;;;;;6.70;5.82;;;17.20;99.90;;;;;;5133858;27;20173;-71
2023/08/18 04:46:06;;;;;;;6.55;4.82;;;17.20;99.90;;;;;;5115776;28;20035;-72
2023/08/18 04:48:31;;;;;;;6.20;5.22;;;17.20;99.90;;;;;;5133977;27;20047;-72
2023/08/18 04:50:57;;;;;;;8.80;5.72;;;17.20;99.90;;;;;;5115503;27;20476;-71
2023/08/18 04:53:23;;;;;;;7.45;6.15;;;17.20;99.90;;;;;;5133687;27;20075;-71
2023/08/18 04:55:49;;;;;;;8.85;5.63;;;17.20;99.90;;;;;;5115920;28;20369;-71
2023/08/18 04:58:15;;;;;;;7.97;5.38;;;17.20;99.90;;;;;;5133600;27;20494;-72
2023/08/18 05:00:44;;;;;;;6.53;5.43;;;17.20;99.90;;;;;;5133994;27;20084;-72
2023/08/18 05:03:11;;;;;;;5.57;5.00;;;17.20;99.90;;;;;;5133964;27;20085;-72
2023/08/18 05:06:12;;;;;;;6.18;5.30;;;17.30;99.90;;;;;;5115705;28;20043;-71
2023/08/18 05:08:41;;;;;;;6.88;4.25;;;17.30;99.90;;;;;;5119635;27;20110;-72
2023/08/18 05:11:09;;;;;;;7.03;5.55;;;17.30;99.90;;;;;;5133451;28;20051;-71
2023/08/18 05:13:37;;;;;;;10.13;5.72;;;17.30;99.90;;;;;;5133355;28;20099;-71
2023/08/18 05:16:03;;;;;;;7.60;5.60;;;17.30;99.90;;;;;;5133354;28;20047;-72
2023/08/18 05:18:29;;;;;;;7.40;5.32;;;17.30;99.90;;;;;;5133677;28;20043;-71
2023/08/18 05:20:58;;;;;;;8.35;5.53;;;17.30;99.90;;;;;;5115475;28;20043;-73
2023/08/18 05:23:25;;;;;;;6.43;5.03;;;17.30;99.90;;;;;;5115394;28;20047;-75
2023/08/18 05:25:54;;;;;;;8.38;5.65;;;17.40;99.90;;;;;;5115287;28;20043;-71
2023/08/18 05:28:21;;;;;;;6.90;5.32;;;17.40;99.90;;;;;;5133426;28;20039;-71
2023/08/18 05:30:52;;;;;;;8.75;5.63;;;17.40;99.90;;;;;;5133095;28;20079;-71
2023/08/18 05:33:18;;;;;;;5.95;5.22;;;17.30;99.90;;;;;;5114831;28;20067;-72
2023/08/18 05:35:43;;;;;;;8.00;6.07;;;17.30;99.90;;;;;;5132931;28;20077;-72
2023/08/18 05:38:13;;;;;;;7.47;5.22;;;17.30;99.90;;;;;;5133214;28;20115;-72
2023/08/18 05:40:41;;;;;;;7.55;5.88;;;17.30;99.90;;;;;;5133215;28;20122;-71
2023/08/18 05:43:09;;;;;;;6.47;5.20;;;17.30;99.90;;;;;;5133013;28;20118;-71
2023/08/18 05:45:36;;;;;;;6.68;5.28;;;17.40;99.90;;;;;;5133380;28;20095;-72
2023/08/18 05:48:03;;;;;;;6.38;4.80;;;17.40;99.90;;;;;;5133997;28;20090;-72
2023/08/18 05:50:30;;;;;;;7.18;5.20;;;17.40;99.90;;;;;;5115302;28;20075;-71
2023/08/18 05:52:56;;;;;;;6.22;5.00;;;17.40;99.90;;;;;;5133645;28;20118;-72
2023/08/18 05:55:25;;;;;;;6.88;5.57;;;17.40;99.90;;;;;;5132741;28;20525;-71
2023/08/18 05:57:52;;;;;;;6.53;4.93;;;17.40;99.90;;;;;;5132815;28;20049;-72
2023/08/18 06:00:18;;;;;;;5.45;4.93;;;17.40;99.90;;;;;;5132747;28;20452;-71
2023/08/18 06:02:44;;;;;;;4.90;4.43;;;17.40;99.90;;;;;;5117572;27;20051;-72
2023/08/18 06:05:10;;;;;;;7.70;4.68;;;17.50;99.90;;;;;;5136984;27;20063;-72
2023/08/18 06:07:36;;;;;;;6.75;5.28;;;17.50;99.90;;;;;;5136387;27;20058;-71
2023/08/18 06:10:06;;;;;;;7.53;4.97;;;17.60;99.90;;;;;;5136534;27;20043;-72
2023/08/18 06:12:32;;;;;;;5.18;4.65;;;17.60;99.90;;;;;;5136495;27;20076;-71
2023/08/18 06:14:57;;;;;;;6.78;4.85;;;17.70;99.90;;;;;;5137681;27;20035;-71
2023/08/18 06:17:23;;;;;;;7.10;4.95;;;17.70;99.90;;;;;;5138134;27;20043;-72
2023/08/18 06:19:49;;;;;;;5.40;4.43;;;17.70;99.90;;;;;;5121248;27;20147;-72
2023/08/18 06:22:14;;;;;;;7.20;4.53;;;17.70;99.90;;;;;;5141201;27;20126;-72
2023/08/18 06:24:41;;;;;;;5.10;4.30;;;17.80;99.90;;;;;;5141398;27;20031;-72
2023/08/18 06:27:07;;;;;;;8.35;5.28;;;17.90;99.90;;;;;;5141062;27;20051;-73
2023/08/18 06:29:32;;;;;;;8.45;4.90;;;17.90;99.90;;;;;;5138813;27;20047;-72
2023/08/18 06:31:58;;;;;;;7.97;5.60;;;17.90;99.90;;;;;;5137960;27;20136;-72
2023/08/18 06:34:24;;;;;;;5.00;4.47;;;17.90;99.90;;;;;;5137178;27;20089;-73
2023/08/18 06:36:51;;;;;;;8.88;4.80;;;17.90;99.90;;;;;;5118103;27;20051;-72
2023/08/18 06:39:17;;;;;;;7.75;5.53;;;17.90;99.90;;;;;;5136331;27;20046;-73
2023/08/18 06:41:43;;;;;;;8.25;5.15;;;17.90;99.90;;;;;;5135634;27;20047;-73
2023/08/18 06:44:08;;;;;;;10.85;5.55;;;17.90;99.90;;;;;;5136050;27;20043;-73
2023/08/18 06:46:35;;;;;;;6.72;4.75;;;17.90;99.90;;;;;;5136114;27;20474;-73
2023/08/18 06:49:02;;;;;;;8.68;5.13;;;18.00;99.90;;;;;;5136027;27;20059;-74
2023/08/18 06:51:28;;;;;;;7.00;5.32;;;18.00;99.90;;;;;;5135836;27;20065;-73
2023/08/18 06:53:54;;;;;;;6.53;4.78;;;18.00;99.90;;;;;;5135544;27;20043;-73
2023/08/18 06:56:19;;;;;;;9.35;5.28;;;18.10;99.90;;;;;;5135335;27;20042;-73
2023/08/18 06:58:45;;;;;;;7.60;5.03;;;18.20;99.90;;;;;;5135627;27;20054;-73
2023/08/18 07:01:11;;;;;;;9.20;5.22;;;18.20;99.90;;;;;;5135760;27;20054;-73
2023/08/18 07:03:37;;;;;;;6.07;4.80;;;18.30;99.90;;;;;;5135576;27;20084;-72
2023/08/18 07:06:03;;;;;;;5.38;4.25;;;18.40;99.90;;;;;;5135760;27;20114;-72
2023/08/18 07:08:28;;;;;;;9.57;5.38;;;18.40;99.90;;;;;;5135837;27;20042;-73
2023/08/18 07:10:54;;;;;;;9.52;5.55;;;18.40;99.90;;;;;;5083755;27;20363;-72
2023/08/18 07:13:21;;;;;;;7.88;4.65;;;18.50;99.90;;;;;;5134207;27;20039;-72
2023/08/18 07:15:48;;;;;;;5.97;4.72;;;18.40;99.90;;;;;;5135191;27;20047;-70
2023/08/18 07:18:13;;;;;;;7.80;5.53;;;18.40;99.90;;;;;;5135537;27;20042;-70
2023/08/18 07:20:45;;;;;;;7.57;5.50;;;18.50;99.90;;;;;;5135542;27;20429;-69
2023/08/18 07:23:11;;;;;;;12.98;6.22;;;18.50;99.90;;;;;;5134965;27;20476;-72
2023/08/18 07:25:39;;;;;;;8.95;5.93;;;18.50;99.90;;;;;;5134695;27;20043;-72
2023/08/18 07:28:05;;;;;;;13.50;7.07;;;18.50;99.90;;;;;;5135615;27;20043;-72
2023/08/18 07:30:31;;;;;;;12.95;8.55;;;18.50;99.90;;;;;;5135331;27;20070;-72
2023/08/18 07:32:57;;;;;;;18.38;8.57;;;18.50;99.90;;;;;;5135490;27;20066;-72
2023/08/18 07:35:25;;;;;;;12.27;7.57;;;18.50;99.90;;;;;;5134889;27;20486;-72
2023/08/18 07:37:52;;;;;;;15.10;8.90;;;18.50;99.90;;;;;;5135295;27;20134;-72
2023/08/18 07:40:19;;;;;;;18.10;9.93;;;18.50;99.90;;;;;;5116304;27;20075;-74
2023/08/18 07:42:45;;;;;;;18.95;10.10;;;18.60;99.90;;;;;;5116218;27;20047;-74
2023/08/18 07:45:11;;;;;;;14.55;8.18;;;18.60;99.90;;;;;;5134702;27;20092;-74
2023/08/18 07:47:38;;;;;;;14.18;7.25;;;18.70;99.90;;;;;;5116004;27;20059;-74
2023/08/18 07:50:08;;;;;;;11.00;7.63;;;18.80;99.90;;;;;;5134905;27;20058;-73
2023/08/18 07:52:34;;;;;;;12.85;7.47;;;18.90;99.90;;;;;;5134755;27;20076;-73
2023/08/18 07:55:04;;;;;;;14.40;7.55;;;18.90;99.90;;;;;;5134497;27;20126;-74
2023/08/18 07:57:30;;;;;;;15.70;8.93;;;18.90;99.90;;;;;;5134645;27;20046;-73
2023/08/18 07:59:56;;;;;;;16.75;8.70;;;18.90;99.90;;;;;;5134725;27;20126;-73
2023/08/18 08:02:22;;;;;;;11.85;7.00;;;18.90;99.90;;;;;;5134937;27;20058;-74
2023/08/18 08:04:48;;;;;;;13.18;9.15;;;18.90;99.90;;;;;;5115638;27;20556;-73
2023/08/18 08:07:14;;;;;;;12.10;6.60;;;18.90;99.90;;;;;;5134444;27;20058;-74
2023/08/18 08:09:40;;;;;;;11.80;7.80;;;19.00;99.90;;;;;;5134363;27;20043;-73
2023/08/18 08:12:06;;;;;;;10.48;7.00;;;19.10;99.90;;;;;;5134398;27;20093;-73
2023/08/18 08:14:31;;;;;;;11.77;8.35;;;19.20;99.90;;;;;;5134525;27;20086;-73
2023/08/18 08:16:58;;;;;;;15.73;7.53;;;19.20;99.90;;;;;;5134199;27;20043;-74
2023/08/18 08:19:24;;;;;;;12.68;7.45;;;19.20;99.90;;;;;;5134235;27;20126;-73
2023/08/18 08:21:50;;;;;;;10.60;7.30;;;19.20;99.90;;;;;;5134164;27;20043;-73
2023/08/18 08:24:16;;;;;;;8.90;6.80;;;19.30;99.90;;;;;;5134215;27;20159;-73
2023/08/18 08:26:42;;;;;;;9.93;7.22;;;19.30;99.90;;;;;;5133992;27;20066;-73
2023/08/18 08:29:07;;;;;;;8.75;6.60;;;19.30;99.90;;;;;;5115758;27;20051;-73
2023/08/18 08:31:33;;;;;;;9.77;6.82;;;19.40;99.90;;;;;;5133990;27;20478;-74
2023/08/18 08:33:59;;;;;;;12.85;6.57;;;19.40;99.90;;;;;;5134285;27;20052;-73
2023/08/18 08:36:24;;;;;;;13.02;8.05;;;19.50;99.90;;;;;;5133814;27;20039;-74
2023/08/18 08:38:51;;;;;;;9.10;6.50;;;19.40;99.90;;;;;;5133777;27;20051;-73
2023/08/18 08:41:17;;;;;;;10.27;6.75;;;19.50;99.90;;;;;;5133748;27;20135;-74
2023/08/18 08:43:42;;;;;;;10.00;6.70;;;19.40;99.90;;;;;;5115985;27;20078;-73
2023/08/18 08:46:08;;;;;;;8.82;7.05;;;19.50;99.90;;;;;;5133791;27;20047;-73
2023/08/18 08:48:44;;;;;;;9.82;7.00;;;19.50;99.90;;;;;;5133836;27;20135;-73
2023/08/18 08:51:11;;;;;;;11.40;7.63;;;19.50;99.90;;;;;;5133860;27;20047;-74
2023/08/18 08:53:45;;;;;;;11.68;7.65;;;19.50;99.90;;;;;;5133897;27;20082;-73
2023/08/18 08:56:13;;;;;;;10.65;7.70;;;19.50;99.90;;;;;;5133728;27;20051;-74
2023/08/18 08:58:39;;;;;;;12.60;7.68;;;19.50;99.90;;;;;;5115768;27;20046;-73
2023/08/18 09:01:08;;;;;;;13.43;7.00;;;19.60;99.90;;;;;;5133482;27;20510;-73
2023/08/18 09:03:34;;;;;;;11.90;6.60;;;19.80;99.90;;;;;;5133698;27;20043;-73
2023/08/18 09:05:59;;;;;;;10.57;6.70;;;20.00;99.90;;;;;;5133368;27;20035;-74
2023/08/18 09:08:25;;;;;;;8.93;6.95;;;20.00;99.90;;;;;;5133087;27;20060;-73
2023/08/18 09:10:51;;;;;;;11.23;7.40;;;20.00;99.90;;;;;;5133173;27;20078;-74
2023/08/18 09:13:17;;;;;;;10.50;6.45;;;20.10;99.90;;;;;;5133176;28;20125;-73
2023/08/18 09:15:47;;;;;;;7.90;6.85;;;20.30;99.90;;;;;;5133341;28;20084;-74
2023/08/18 09:18:14;;;;;;;9.15;7.10;;;20.40;99.90;;;;;;5115007;28;20046;-74
2023/08/18 09:20:41;;;;;;;12.82;6.72;;;20.40;99.90;;;;;;5133088;28;20480;-74
2023/08/18 09:23:07;;;;;;;11.43;7.03;;;20.50;99.90;;;;;;5098721;28;20068;-74
2023/08/18 09:25:36;;;;;;;10.55;7.63;;;20.60;99.90;;;;;;5133895;28;20039;-74
2023/08/18 09:28:05;;;;;;;9.73;7.32;;;20.70;99.90;;;;;;5115293;28;20078;-74
2023/08/18 09:30:32;;;;;;;9.95;7.72;;;20.90;99.90;;;;;;5115359;28;20355;-74
2023/08/18 09:33:02;;;;;;;10.80;6.93;;;21.10;99.90;;;;;;5133584;28;20471;-74
2023/08/18 09:35:34;;;;;;;8.07;7.05;;;21.20;99.90;;;;;;5133976;27;20039;-74
2023/08/18 09:38:01;;;;;;;8.50;7.53;;;21.30;99.90;;;;;;5137599;27;20129;-74
2023/08/18 09:40:27;;;;;;;11.00;7.68;;;21.40;99.90;;;;;;5137246;27;20047;-74
2023/08/18 09:42:54;;;;;;;9.05;7.18;;;21.40;99.90;;;;;;5119003;27;20145;-74
2023/08/18 09:45:25;;;;;;;7.53;6.55;;;21.50;99.90;;;;;;5119061;27;20128;-74
2023/08/18 09:47:56;;;;;;;7.70;6.47;;;21.60;99.90;;;;;;5137065;27;20055;-73
2023/08/18 09:50:25;;;;;;;9.85;7.32;;;21.70;99.90;;;;;;5137439;27;20042;-73
2023/08/18 09:52:54;;;;;;;8.85;7.57;;;21.60;99.90;;;;;;5137105;27;20075;-72
2023/08/18 09:55:28;;;;;;;9.93;7.88;;;21.50;99.90;;;;;;5136957;27;20039;-73
2023/08/18 09:58:01;;;;;;;10.75;7.88;;;21.60;99.90;;;;;;5136913;27;20043;-73
2023/08/18 10:00:28;;;;;;;10.73;8.02;;;21.70;99.90;;;;;;5118680;27;20508;-73
2023/08/18 10:02:59;;;;;;;10.60;7.35;;;21.70;99.90;;;;;;5118840;27;20047;-73
2023/08/18 10:05:25;;;;;;;8.10;7.30;;;21.80;99.90;;;;;;5137515;27;20105;-73
2023/08/18 10:07:52;;;;;;;8.52;7.20;;;21.90;99.90;;;;;;5137207;27;20043;-73
2023/08/18 10:10:19;;;;;;;8.00;7.28;;;22.00;99.90;;;;;;5136372;27;20552;-73
2023/08/18 10:12:45;;;;;;;8.68;6.90;;;21.90;99.90;;;;;;5136577;27;20480;-73
2023/08/18 10:15:12;;;;;;;8.30;7.40;;;21.90;99.90;;;;;;5137192;27;20393;-73
2023/08/18 10:17:39;;;;;;;8.10;7.20;;;22.00;99.90;;;;;;5136503;27;20043;-73
2023/08/18 10:20:12;;;;;;;12.18;7.43;;;22.00;99.90;;;;;;5137054;27;20039;-74
2023/08/18 10:22:39;;;;;;;7.05;6.35;;;22.00;99.90;;;;;;5136069;27;20486;-74
2023/08/18 10:25:06;;;;;;;8.50;7.00;;;22.10;99.90;;;;;;5136423;27;20118;-73
2023/08/18 10:27:37;;;;;;;8.75;7.03;;;22.20;99.90;;;;;;5136828;27;20065;-73
2023/08/18 10:30:23;;;;;;;11.07;7.03;;;22.30;99.90;;;;;;5136791;27;20047;-73
2023/08/18 10:32:51;;;;;;;9.32;7.18;;;22.30;99.90;;;;;;5136346;27;20054;-74
2023/08/18 10:35:25;;;;;;;10.02;7.28;;;22.30;99.90;;;;;;5136078;27;20448;-73
2023/08/18 10:37:58;;;;;;;7.97;6.88;;;22.30;99.90;;;;;;5136487;27;20058;-73
2023/08/18 10:40:26;;;;;;;8.60;7.05;;;22.30;99.90;;;;;;5117525;27;20043;-73
2023/08/18 10:42:53;;;;;;;8.75;7.85;;;22.40;99.90;;;;;;5118130;27;20079;-75
2023/08/18 10:45:27;;;;;;;7.55;6.82;;;22.40;99.90;;;;;;5136420;27;20049;-74
2023/08/18 10:47:54;;;;;;;7.55;6.63;;;22.60;99.90;;;;;;5135343;27;20137;-72
2023/08/18 10:50:19;;;;;;;7.93;7.13;;;22.50;99.90;;;;;;5135868;27;20047;-73
2023/08/18 10:52:45;;;;;;;9.27;7.15;;;22.50;99.90;;;;;;5135843;27;20053;-73
2023/08/18 10:55:11;;;;;;;8.27;6.68;;;22.50;99.90;;;;;;5135705;27;20035;-73
2023/08/18 10:57:37;;;;;;;7.45;6.75;;;22.60;99.90;;;;;;5135732;27;20062;-71
2023/08/18 11:00:11;;;;;;;7.63;6.75;;;22.70;99.90;;;;;;5118087;27;20051;-74
2023/08/18 11:02:37;;;;;;;10.10;6.97;;;22.70;99.90;;;;;;5135743;27;20050;-75
2023/08/18 11:05:04;;;;;;;7.88;6.78;;;22.80;99.90;;;;;;5117490;27;20132;-74
2023/08/18 11:07:30;;;;;;;7.15;6.50;;;22.90;99.90;;;;;;5135629;27;20046;-73
2023/08/18 11:09:56;;;;;;;8.50;7.03;;;23.00;99.90;;;;;;5135379;27;20047;-73
2023/08/18 11:12:22;;;;;;;9.68;7.28;;;23.20;99.90;;;;;;5135451;27;20139;-73
2023/08/18 11:14:48;;;;;;;9.23;7.10;;;23.30;99.90;;;;;;5135452;27;20078;-73
2023/08/18 11:17:14;;;;;;;8.65;7.35;;;23.30;99.90;;;;;;5135517;27;20472;-73
2023/08/18 11:19:40;;;;;;;8.77;7.88;;;23.40;99.90;;;;;;5135705;27;20123;-73
2023/08/18 11:22:06;;;;;;;8.80;7.38;;;23.50;99.90;;;;;;5135449;27;20086;-73
2023/08/18 11:24:34;;;;;;;9.10;7.30;;;23.60;99.90;;;;;;5135608;27;20202;-73
2023/08/18 11:27:01;;;;;;;7.95;7.15;;;23.80;99.90;;;;;;5135285;27;20083;-73
2023/08/18 11:29:27;;;;;;;7.55;6.75;;;23.80;99.90;;;;;;5135233;27;20061;-74
2023/08/18 11:31:53;;;;;;;8.68;6.95;;;23.80;99.90;;;;;;5135163;27;20375;-74
2023/08/18 11:34:20;;;;;;;9.30;7.97;;;23.90;99.90;;;;;;5135330;27;20050;-73
2023/08/18 11:36:46;;;;;;;8.50;7.60;;;24.00;99.90;;;;;;5134980;27;20043;-73
2023/08/18 11:39:12;;;;;;;7.40;6.75;;;24.00;99.90;;;;;;5135472;27;20077;-74
2023/08/18 11:41:39;;;;;;;8.48;7.35;;;24.00;99.90;;;;;;5134901;27;20051;-74
2023/08/18 11:44:08;;;;;;;8.73;7.78;;;24.00;99.90;;;;;;5135168;27;20132;-74
2023/08/18 11:46:38;;;;;;;8.38;7.55;;;23.90;99.90;;;;;;5134511;27;20523;-73
2023/08/18 11:49:17;;;;;;;8.25;7.32;;;23.90;99.90;;;;;;5134884;27;20138;-74
2023/08/18 11:52:00;;;;;;;8.35;7.43;;;23.90;99.90;;;;;;5116482;27;20100;-74
2023/08/18 11:54:31;;;;;;;9.25;7.57;;;23.90;99.90;;;;;;5134310;27;20450;-73
2023/08/18 11:56:57;;;;;;;8.23;6.95;;;23.90;99.90;;;;;;5116800;27;20441;-73
2023/08/18 11:59:24;;;;;;;9.38;6.93;;;24.10;99.90;;;;;;5134068;27;20076;-74
2023/08/18 12:01:55;;;;;;;7.53;6.50;;;24.30;99.90;;;;;;5134647;27;20045;-74
2023/08/18 12:04:24;;;;;;;8.43;7.45;;;24.60;99.90;;;;;;5116226;27;20074;-73
2023/08/18 12:06:50;;;;;;;8.48;7.57;;;25.00;99.90;;;;;;5134543;27;20047;-73
2023/08/18 12:09:16;;;;;;;7.85;6.97;;;25.40;99.90;;;;;;5133976;27;20517;-73
2023/08/18 12:11:42;;;;;;;8.30;7.50;;;25.70;99.90;;;;;;5116431;27;20160;-73
2023/08/18 12:14:07;;;;;;;10.70;9.00;;;25.90;99.90;;;;;;5134334;27;20448;-73
2023/08/18 12:16:34;;;;;;;10.57;8.55;;;26.00;99.90;;;;;;5134140;27;20462;-73
2023/08/18 12:19:01;;;;;;;10.27;8.95;;;26.20;99.90;;;;;;5134099;27;20062;-73
2023/08/18 12:21:27;;;;;;;10.18;8.48;;;26.30;99.90;;;;;;5134150;27;20051;-73
2023/08/18 12:23:52;;;;;;;11.95;8.20;;;26.40;99.90;;;;;;5134064;27;20127;-73
2023/08/18 12:26:18;;;;;;;10.07;8.32;;;26.20;99.90;;;;;;5099637;27;20043;-74
2023/08/18 12:28:44;;;;;;;13.98;9.23;;;26.00;99.90;;;;;;5134181;27;20039;-73
2023/08/18 12:31:10;;;;;;;11.27;8.85;;;25.90;99.90;;;;;;5116391;27;20126;-74
2023/08/18 12:33:36;;;;;;;12.60;9.05;;;25.80;99.90;;;;;;5115799;27;20101;-73
2023/08/18 12:36:02;;;;;;;10.85;8.95;;;25.60;99.90;;;;;;5098725;27;20047;-74
2023/08/18 12:38:28;;;;;;;12.32;9.43;;;25.40;99.90;;;;;;5134393;27;20043;-72
2023/08/18 12:40:54;;;;;;;11.82;9.13;;;25.20;99.90;;;;;;5133780;27;20494;-74
2023/08/18 12:43:20;;;;;;;10.32;9.20;;;25.10;99.90;;;;;;5115690;27;20046;-73
2023/08/18 12:45:45;;;;;;;12.63;9.25;;;25.10;99.90;;;;;;5134239;27;20039;-73